sensor_id;sensor_type;location;lat;lon;timestamp;temperature;humidity
32187;DHT22;18686;53.084;8.872;2023-12-28T00:01:27;7.40;99.90
32187;DHT22;18686;53.084;8.872;2023-12-28T00:03:55;7.50;99.90
32187;DHT22;18686;53.084;8.872;2023-12-28T00:06:24;7.40;99.90
32187;DHT22;18686;53.084;8.872;2023-12-28T00:08:54;7.50;99.90
32187;DHT22;18686;53.084;8.872;2023-12-28T00:11:34;7.60;99.90
32187;DHT22;18686;53.084;8.872;2023-12-28T00:14:02;7.60;99.90
32187;DHT22;18686;53.084;8.872;2023-12-28T00:16:31;7.60;99.90
32187;DHT22;18686;53.084;8.872;2023-12-28T00:19:01;7.70;99.90
32187;DHT22;18686;53.084;8.872;2023-12-28T00:21:31;7.70;99.90
32187;DHT22;18686;53.084;8.872;2023-12-28T00:24:01;7.70;99.90
32187;DHT22;18686;53.084;8.872;2023-12-28T00:26:30;7.70;99.90
32187;DHT22;18686;53.084;8.872;2023-12-28T00:29:03;7.70;99.90
32187;DHT22;18686;53.084;8.872;2023-12-28T00:31:33;7.70;99.90
32187;DHT22;18686;53.084;8.872;2023-12-28T00:34:02;7.70;99.90
32187;DHT22;18686;53.084;8.872;2023-12-28T00:36:31;7.70;99.90
32187;DHT22;18686;53.084;8.872;2023-12-28T00:39:01;7.80;99.90
32187;DHT22;18686;53.084;8.872;2023-12-28T00:41:30;7.80;99.90
32187;DHT22;18686;53.084;8.872;2023-12-28T00:43:59;7.80;99.90
32187;DHT22;18686;53.084;8.872;2023-12-28T00:46:27;7.80;99.90
32187;DHT22;18686;53.084;8.872;2023-12-28T00:48:57;7.80;99.90
32187;DHT22;18686;53.084;8.872;2023-12-28T00:51:26;7.90;99.90
32187;DHT22;18686;53.084;8.872;2023-12-28T00:53:55;7.90;99.90
32187;DHT22;18686;53.084;8.872;2023-12-28T00:56:25;7.90;99.90
32187;DHT22;18686;53.084;8.872;2023-12-28T00:58:54;7.90;99.90
32187;DHT22;18686;53.084;8.872;2023-12-28T01:01:23;7.80;99.90
32187;DHT22;18686;53.084;8.872;2023-12-28T01:03:51;7.80;99.90
32187;DHT22;18686;53.084;8.872;2023-12-28T01:06:20;7.80;99.90
32187;DHT22;18686;53.084;8.872;2023-12-28T01:08:49;7.80;99.90
32187;DHT22;18686;53.084;8.872;2023-12-28T01:11:18;7.80;99.90
32187;DHT22;18686;53.084;8.872;2023-12-28T01:13:48;7.80;99.90
32187;DHT22;18686;53.084;8.872;2023-12-28T01:16:17;7.80;99.90
32187;DHT22;18686;53.084;8.872;2023-12-28T01:18:46;7.80;99.90
32187;DHT22;18686;53.084;8.872;2023-12-28T01:21:15;7.80;99.90
32187;DHT22;18686;53.084;8.872;2023-12-28T01:23:43;7.80;99.90
32187;DHT22;18686;53.084;8.872;2023-12-28T01:26:13;7.80;99.90
32187;DHT22;18686;53.084;8.872;2023-12-28T01:28:42;7.90;99.90
32187;DHT22;18686;53.084;8.872;2023-12-28T01:31:12;7.90;99.90
32187;DHT22;18686;53.084;8.872;2023-12-28T01:33:41;7.90;99.90
32187;DHT22;18686;53.084;8.872;2023-12-28T01:36:20;8.00;99.90
32187;DHT22;18686;53.084;8.872;2023-12-28T01:38:49;8.00;99.90
32187;DHT22;18686;53.084;8.872;2023-12-28T01:41:18;8.10;99.90
32187;DHT22;18686;53.084;8.872;2023-12-28T01:43:47;8.10;99.90
32187;DHT22;18686;53.084;8.872;2023-12-28T01:46:19;8.10;99.90
32187;DHT22;18686;53.084;8.872;2023-12-28T01:48:50;8.20;99.90
32187;DHT22;18686;53.084;8.872;2023-12-28T01:51:20;8.20;99.90
32187;DHT22;18686;53.084;8.872;2023-12-28T01:53:50;8.30;99.90
32187;DHT22;18686;53.084;8.872;2023-12-28T01:56:20;8.30;99.90
32187;DHT22;18686;53.084;8.872;2023-12-28T01:58:49;8.30;99.90
32187;DHT22;18686;53.084;8.872;2023-12-28T02:01:21;8.30;99.90
32187;DHT22;18686;53.084;8.872;2023-12-28T02:03:49;8.40;99.90
32187;DHT22;18686;53.084;8.872;2023-12-28T02:06:18;8.30;99.90
32187;DHT22;18686;53.084;8.872;2023-12-28T02:08:50;8.40;99.90
32187;DHT22;18686;53.084;8.872;2023-12-28T02:11:19;8.30;99.90
32187;DHT22;18686;53.084;8.872;2023-12-28T02:13:48;8.30;99.90
32187;DHT22;18686;53.084;8.872;2023-12-28T02:16:23;8.20;99.90
32187;DHT22;18686;53.084;8.872;2023-12-28T02:18:56;8.20;99.90
32187;DHT22;18686;53.084;8.872;2023-12-28T02:21:28;8.20;99.90
32187;DHT22;18686;53.084;8.872;2023-12-28T02:23:57;8.20;99.90
32187;DHT22;18686;53.084;8.872;2023-12-28T02:26:27;8.20;99.90
32187;DHT22;18686;53.084;8.872;2023-12-28T02:28:56;8.20;99.90
32187;DHT22;18686;53.084;8.872;2023-12-28T02:31:31;8.20;99.90
32187;DHT22;18686;53.084;8.872;2023-12-28T02:34:06;8.20;99.90
32187;DHT22;18686;53.084;8.872;2023-12-28T02:36:41;8.20;99.90
32187;DHT22;18686;53.084;8.872;2023-12-28T02:39:14;8.20;99.90
32187;DHT22;18686;53.084;8.872;2023-12-28T02:41:46;8.20;99.90
32187;DHT22;18686;53.084;8.872;2023-12-28T02:44:14;8.20;99.90
32187;DHT22;18686;53.084;8.872;2023-12-28T02:46:42;8.20;99.90
32187;DHT22;18686;53.084;8.872;2023-12-28T02:49:11;8.20;99.90
32187;DHT22;18686;53.084;8.872;2023-12-28T02:51:40;8.20;99.90
32187;DHT22;18686;53.084;8.872;2023-12-28T02:54:10;8.20;99.90
32187;DHT22;18686;53.084;8.872;2023-12-28T02:56:39;8.20;99.90
32187;DHT22;18686;53.084;8.872;2023-12-28T02:59:11;8.20;99.90
32187;DHT22;18686;53.084;8.872;2023-12-28T03:01:40;8.20;99.90
32187;DHT22;18686;53.084;8.872;2023-12-28T03:04:08;8.20;99.90
32187;DHT22;18686;53.084;8.872;2023-12-28T03:06:37;8.20;99.90
32187;DHT22;18686;53.084;8.872;2023-12-28T03:09:08;8.20;99.90
32187;DHT22;18686;53.084;8.872;2023-12-28T03:11:36;8.20;99.90
32187;DHT22;18686;53.084;8.872;2023-12-28T03:14:05;8.20;99.90
32187;DHT22;18686;53.084;8.872;2023-12-28T03:16:34;8.20;99.90
32187;DHT22;18686;53.084;8.872;2023-12-28T03:19:03;8.20;99.90
32187;DHT22;18686;53.084;8.872;2023-12-28T03:21:32;8.20;99.90
32187;DHT22;18686;53.084;8.872;2023-12-28T03:24:00;8.20;99.90
32187;DHT22;18686;53.084;8.872;2023-12-28T03:26:29;8.30;99.90
32187;DHT22;18686;53.084;8.872;2023-12-28T03:28:57;8.20;99.90
32187;DHT22;18686;53.084;8.872;2023-12-28T03:31:26;8.20;99.90
32187;DHT22;18686;53.084;8.872;2023-12-28T03:33:56;8.20;99.90
32187;DHT22;18686;53.084;8.872;2023-12-28T03:36:25;8.30;99.90
32187;DHT22;18686;53.084;8.872;2023-12-28T03:38:54;8.20;99.90
32187;DHT22;18686;53.084;8.872;2023-12-28T03:41:22;8.20;99.90
32187;DHT22;18686;53.084;8.872;2023-12-28T03:43:51;8.30;99.90
32187;DHT22;18686;53.084;8.872;2023-12-28T03:46:19;8.20;99.90
32187;DHT22;18686;53.084;8.872;2023-12-28T03:48:48;8.20;99.90
32187;DHT22;18686;53.084;8.872;2023-12-28T03:51:18;8.20;99.90
32187;DHT22;18686;53.084;8.872;2023-12-28T03:53:47;8.20;99.90
32187;DHT22;18686;53.084;8.872;2023-12-28T03:56:21;8.10;99.90
32187;DHT22;18686;53.084;8.872;2023-12-28T03:58:53;8.10;99.90
32187;DHT22;18686;53.084;8.872;2023-12-28T04:01:22;8.00;99.90
32187;DHT22;18686;53.084;8.872;2023-12-28T04:03:51;8.00;99.90
32187;DHT22;18686;53.084;8.872;2023-12-28T04:06:21;8.00;99.90
32187;DHT22;18686;53.084;8.872;2023-12-28T04:08:50;8.00;99.90
32187;DHT22;18686;53.084;8.872;2023-12-28T04:11:18;8.00;99.90
32187;DHT22;18686;53.084;8.872;2023-12-28T04:13:47;8.00;99.90
32187;DHT22;18686;53.084;8.872;2023-12-28T04:16:15;8.00;99.90
32187;DHT22;18686;53.084;8.872;2023-12-28T04:18:44;8.00;99.90
32187;DHT22;18686;53.084;8.872;2023-12-28T04:21:14;8.00;99.90
32187;DHT22;18686;53.084;8.872;2023-12-28T04:23:44;8.00;99.90
32187;DHT22;18686;53.084;8.872;2023-12-28T04:26:13;8.10;99.90
32187;DHT22;18686;53.084;8.872;2023-12-28T04:28:41;8.10;99.90
32187;DHT22;18686;53.084;8.872;2023-12-28T04:31:10;8.10;99.90
32187;DHT22;18686;53.084;8.872;2023-12-28T04:33:39;8.10;99.90
32187;DHT22;18686;53.084;8.872;2023-12-28T04:36:08;8.10;99.90
32187;DHT22;18686;53.084;8.872;2023-12-28T04:38:37;8.10;99.90
32187;DHT22;18686;53.084;8.872;2023-12-28T04:41:09;8.20;99.90
32187;DHT22;18686;53.084;8.872;2023-12-28T04:43:39;8.10;99.90
32187;DHT22;18686;53.084;8.872;2023-12-28T04:46:07;8.10;99.90
32187;DHT22;18686;53.084;8.872;2023-12-28T04:48:36;8.10;99.90
32187;DHT22;18686;53.084;8.872;2023-12-28T04:51:05;8.10;99.90
32187;DHT22;18686;53.084;8.872;2023-12-28T04:53:32;8.00;99.90
32187;DHT22;18686;53.084;8.872;2023-12-28T04:56:01;8.00;99.90
32187;DHT22;18686;53.084;8.872;2023-12-28T04:58:31;8.00;99.90
32187;DHT22;18686;53.084;8.872;2023-12-28T05:01:01;8.00;99.90
32187;DHT22;18686;53.084;8.872;2023-12-28T05:03:30;8.00;99.90
32187;DHT22;18686;53.084;8.872;2023-12-28T05:05:58;8.00;99.90
32187;DHT22;18686;53.084;8.872;2023-12-28T05:08:27;8.00;99.90
32187;DHT22;18686;53.084;8.872;2023-12-28T05:10:55;8.00;99.90
32187;DHT22;18686;53.084;8.872;2023-12-28T05:13:24;8.00;99.90
32187;DHT22;18686;53.084;8.872;2023-12-28T05:15:53;8.00;99.90
32187;DHT22;18686;53.084;8.872;2023-12-28T05:18:22;8.00;99.90
32187;DHT22;18686;53.084;8.872;2023-12-28T05:20:51;8.00;99.90
32187;DHT22;18686;53.084;8.872;2023-12-28T05:23:19;8.00;99.90
32187;DHT22;18686;53.084;8.872;2023-12-28T05:25:48;8.00;99.90
32187;DHT22;18686;53.084;8.872;2023-12-28T05:28:16;8.00;99.90
32187;DHT22;18686;53.084;8.872;2023-12-28T05:30:44;8.00;99.90
32187;DHT22;18686;53.084;8.872;2023-12-28T05:33:14;8.00;99.90
32187;DHT22;18686;53.084;8.872;2023-12-28T05:35:43;8.00;99.90
32187;DHT22;18686;53.084;8.872;2023-12-28T05:38:13;8.00;99.90
32187;DHT22;18686;53.084;8.872;2023-12-28T05:40:42;8.00;99.90
32187;DHT22;18686;53.084;8.872;2023-12-28T05:43:11;8.00;99.90
32187;DHT22;18686;53.084;8.872;2023-12-28T05:45:39;8.10;99.90
32187;DHT22;18686;53.084;8.872;2023-12-28T05:48:08;8.10;99.90
32187;DHT22;18686;53.084;8.872;2023-12-28T05:50:38;8.10;99.90
32187;DHT22;18686;53.084;8.872;2023-12-28T05:53:07;8.10;99.90
32187;DHT22;18686;53.084;8.872;2023-12-28T05:55:41;8.20;99.90
32187;DHT22;18686;53.084;8.872;2023-12-28T05:58:10;8.20;99.90
32187;DHT22;18686;53.084;8.872;2023-12-28T06:00:38;8.20;99.90
32187;DHT22;18686;53.084;8.872;2023-12-28T06:03:07;8.20;99.90
32187;DHT22;18686;53.084;8.872;2023-12-28T06:05:35;8.20;99.90
32187;DHT22;18686;53.084;8.872;2023-12-28T06:08:05;8.20;99.90
32187;DHT22;18686;53.084;8.872;2023-12-28T06:10:34;8.30;99.90
32187;DHT22;18686;53.084;8.872;2023-12-28T06:13:02;8.30;99.90
32187;DHT22;18686;53.084;8.872;2023-12-28T06:15:31;8.30;99.90
32187;DHT22;18686;53.084;8.872;2023-12-28T06:17:59;8.30;99.90
32187;DHT22;18686;53.084;8.872;2023-12-28T06:20:29;8.40;99.90
32187;DHT22;18686;53.084;8.872;2023-12-28T06:22:57;8.50;99.90
32187;DHT22;18686;53.084;8.872;2023-12-28T06:25:27;8.50;99.90
32187;DHT22;18686;53.084;8.872;2023-12-28T06:27:56;8.60;99.90
32187;DHT22;18686;53.084;8.872;2023-12-28T06:30:26;8.70;99.90
32187;DHT22;18686;53.084;8.872;2023-12-28T06:32:55;8.80;99.90
32187;DHT22;18686;53.084;8.872;2023-12-28T06:35:24;8.90;99.90
32187;DHT22;18686;53.084;8.872;2023-12-28T06:37:52;8.90;99.90
32187;DHT22;18686;53.084;8.872;2023-12-28T06:40:20;9.00;99.90
32187;DHT22;18686;53.084;8.872;2023-12-28T06:42:50;9.00;99.90
32187;DHT22;18686;53.084;8.872;2023-12-28T06:45:18;9.10;99.90
32187;DHT22;18686;53.084;8.872;2023-12-28T06:47:47;9.20;99.90
32187;DHT22;18686;53.084;8.872;2023-12-28T06:50:15;9.20;99.90
32187;DHT22;18686;53.084;8.872;2023-12-28T06:52:44;9.30;99.90
32187;DHT22;18686;53.084;8.872;2023-12-28T06:55:13;9.30;99.90
32187;DHT22;18686;53.084;8.872;2023-12-28T06:57:41;9.30;99.90
32187;DHT22;18686;53.084;8.872;2023-12-28T07:00:12;9.40;99.90
32187;DHT22;18686;53.084;8.872;2023-12-28T07:02:41;9.40;99.90
32187;DHT22;18686;53.084;8.872;2023-12-28T07:05:09;9.50;99.90
32187;DHT22;18686;53.084;8.872;2023-12-28T07:07:39;9.50;99.90
32187;DHT22;18686;53.084;8.872;2023-12-28T07:10:08;9.50;99.90
32187;DHT22;18686;53.084;8.872;2023-12-28T07:12:37;9.60;99.90
32187;DHT22;18686;53.084;8.872;2023-12-28T07:15:06;9.60;99.90
32187;DHT22;18686;53.084;8.872;2023-12-28T07:17:38;9.60;99.90
32187;DHT22;18686;53.084;8.872;2023-12-28T07:20:07;9.70;99.90
32187;DHT22;18686;53.084;8.872;2023-12-28T07:22:38;9.70;99.90
32187;DHT22;18686;53.084;8.872;2023-12-28T07:25:07;9.80;99.90
32187;DHT22;18686;53.084;8.872;2023-12-28T07:27:35;9.80;99.90
32187;DHT22;18686;53.084;8.872;2023-12-28T07:30:06;9.90;99.90
32187;DHT22;18686;53.084;8.872;2023-12-28T07:32:35;9.90;99.90
32187;DHT22;18686;53.084;8.872;2023-12-28T07:35:05;9.90;99.90
32187;DHT22;18686;53.084;8.872;2023-12-28T07:37:34;10.00;99.90
32187;DHT22;18686;53.084;8.872;2023-12-28T07:40:03;10.10;99.90
32187;DHT22;18686;53.084;8.872;2023-12-28T07:42:32;10.10;99.90
32187;DHT22;18686;53.084;8.872;2023-12-28T07:45:00;10.10;99.90
32187;DHT22;18686;53.084;8.872;2023-12-28T07:47:29;10.10;99.90
32187;DHT22;18686;53.084;8.872;2023-12-28T07:49:58;10.20;99.90
32187;DHT22;18686;53.084;8.872;2023-12-28T07:52:29;10.20;99.90
32187;DHT22;18686;53.084;8.872;2023-12-28T07:54:57;10.20;99.90
32187;DHT22;18686;53.084;8.872;2023-12-28T07:57:26;10.20;99.90
32187;DHT22;18686;53.084;8.872;2023-12-28T07:59:54;10.30;99.90
32187;DHT22;18686;53.084;8.872;2023-12-28T08:02:23;10.30;99.90
32187;DHT22;18686;53.084;8.872;2023-12-28T08:04:51;10.30;99.90
32187;DHT22;18686;53.084;8.872;2023-12-28T08:07:20;10.40;99.90
32187;DHT22;18686;53.084;8.872;2023-12-28T08:09:50;10.40;99.90
32187;DHT22;18686;53.084;8.872;2023-12-28T08:12:18;10.40;99.90
32187;DHT22;18686;53.084;8.872;2023-12-28T08:14:48;10.50;99.90
32187;DHT22;18686;53.084;8.872;2023-12-28T08:17:16;10.50;99.90
32187;DHT22;18686;53.084;8.872;2023-12-28T08:19:45;10.60;99.90
32187;DHT22;18686;53.084;8.872;2023-12-28T08:22:13;10.60;99.90
32187;DHT22;18686;53.084;8.872;2023-12-28T08:24:42;10.60;99.90
32187;DHT22;18686;53.084;8.872;2023-12-28T08:27:12;10.70;99.90
32187;DHT22;18686;53.084;8.872;2023-12-28T08:29:41;10.70;99.90
32187;DHT22;18686;53.084;8.872;2023-12-28T08:32:10;10.70;99.90
32187;DHT22;18686;53.084;8.872;2023-12-28T08:34:39;10.70;99.90
32187;DHT22;18686;53.084;8.872;2023-12-28T08:37:07;10.80;99.90
32187;DHT22;18686;53.084;8.872;2023-12-28T08:39:36;10.80;99.90
32187;DHT22;18686;53.084;8.872;2023-12-28T08:42:06;10.80;99.90
32187;DHT22;18686;53.084;8.872;2023-12-28T08:44:36;10.80;99.90
32187;DHT22;18686;53.084;8.872;2023-12-28T08:47:04;10.90;99.90
32187;DHT22;18686;53.084;8.872;2023-12-28T08:49:33;10.90;99.90
32187;DHT22;18686;53.084;8.872;2023-12-28T08:52:02;11.00;99.90
32187;DHT22;18686;53.084;8.872;2023-12-28T08:54:30;11.20;99.90
32187;DHT22;18686;53.084;8.872;2023-12-28T08:56:59;11.40;99.90
32187;DHT22;18686;53.084;8.872;2023-12-28T08:59:27;11.50;99.90
32187;DHT22;18686;53.084;8.872;2023-12-28T09:01:57;11.60;99.90
32187;DHT22;18686;53.084;8.872;2023-12-28T09:04:26;11.70;99.90
32187;DHT22;18686;53.084;8.872;2023-12-28T09:06:54;11.80;99.90
32187;DHT22;18686;53.084;8.872;2023-12-28T09:09:23;11.90;99.90
32187;DHT22;18686;53.084;8.872;2023-12-28T09:11:51;11.90;99.90
32187;DHT22;18686;53.084;8.872;2023-12-28T09:14:20;12.00;99.90
32187;DHT22;18686;53.084;8.872;2023-12-28T09:16:48;12.00;99.90
32187;DHT22;18686;53.084;8.872;2023-12-28T09:19:18;12.10;99.90
32187;DHT22;18686;53.084;8.872;2023-12-28T09:21:48;12.10;99.90
32187;DHT22;18686;53.084;8.872;2023-12-28T09:24:17;12.20;99.90
32187;DHT22;18686;53.084;8.872;2023-12-28T09:26:46;12.10;99.90
32187;DHT22;18686;53.084;8.872;2023-12-28T09:29:15;12.10;99.90
32187;DHT22;18686;53.084;8.872;2023-12-28T09:31:43;12.00;99.90
32187;DHT22;18686;53.084;8.872;2023-12-28T09:34:13;12.00;99.90
32187;DHT22;18686;53.084;8.872;2023-12-28T09:36:43;12.00;99.90
32187;DHT22;18686;53.084;8.872;2023-12-28T09:39:12;12.00;99.90
32187;DHT22;18686;53.084;8.872;2023-12-28T09:41:43;12.00;99.90
32187;DHT22;18686;53.084;8.872;2023-12-28T09:44:17;12.00;99.90
32187;DHT22;18686;53.084;8.872;2023-12-28T09:46:47;12.10;99.90
32187;DHT22;18686;53.084;8.872;2023-12-28T09:49:16;12.40;99.90
32187;DHT22;18686;53.084;8.872;2023-12-28T09:51:47;12.60;99.90
32187;DHT22;18686;53.084;8.872;2023-12-28T09:54:16;12.70;99.90
32187;DHT22;18686;53.084;8.872;2023-12-28T09:56:45;12.70;99.90
32187;DHT22;18686;53.084;8.872;2023-12-28T09:59:16;12.70;99.90
32187;DHT22;18686;53.084;8.872;2023-12-28T10:01:46;12.60;99.90
32187;DHT22;18686;53.084;8.872;2023-12-28T10:04:16;12.50;99.90
32187;DHT22;18686;53.084;8.872;2023-12-28T10:06:46;12.40;99.90
32187;DHT22;18686;53.084;8.872;2023-12-28T10:09:15;12.30;99.90
32187;DHT22;18686;53.084;8.872;2023-12-28T10:11:43;12.20;99.90
32187;DHT22;18686;53.084;8.872;2023-12-28T10:14:12;12.30;99.90
32187;DHT22;18686;53.084;8.872;2023-12-28T10:16:41;12.30;99.90
32187;DHT22;18686;53.084;8.872;2023-12-28T10:19:09;12.30;99.90
32187;DHT22;18686;53.084;8.872;2023-12-28T10:21:39;12.20;99.90
32187;DHT22;18686;53.084;8.872;2023-12-28T10:24:11;12.30;99.90
32187;DHT22;18686;53.084;8.872;2023-12-28T10:26:40;12.50;99.90
32187;DHT22;18686;53.084;8.872;2023-12-28T10:29:09;12.50;99.90
32187;DHT22;18686;53.084;8.872;2023-12-28T10:31:42;12.40;99.90
32187;DHT22;18686;53.084;8.872;2023-12-28T10:34:12;12.30;99.90
32187;DHT22;18686;53.084;8.872;2023-12-28T10:36:41;12.10;99.90
32187;DHT22;18686;53.084;8.872;2023-12-28T10:39:14;12.10;99.90
32187;DHT22;18686;53.084;8.872;2023-12-28T10:41:49;11.90;99.90
32187;DHT22;18686;53.084;8.872;2023-12-28T10:44:20;11.80;99.90
32187;DHT22;18686;53.084;8.872;2023-12-28T10:46:50;11.80;99.90
32187;DHT22;18686;53.084;8.872;2023-12-28T10:49:25;11.70;99.90
32187;DHT22;18686;53.084;8.872;2023-12-28T10:51:54;11.80;99.90
32187;DHT22;18686;53.084;8.872;2023-12-28T10:54:37;11.80;99.90
32187;DHT22;18686;53.084;8.872;2023-12-28T10:57:16;11.70;99.90
32187;DHT22;18686;53.084;8.872;2023-12-28T11:00:02;11.70;99.90
32187;DHT22;18686;53.084;8.872;2023-12-28T11:02:37;11.80;99.90
32187;DHT22;18686;53.084;8.872;2023-12-28T11:05:07;11.80;99.90
32187;DHT22;18686;53.084;8.872;2023-12-28T11:07:37;11.70;99.90
32187;DHT22;18686;53.084;8.872;2023-12-28T11:10:08;11.90;99.90
32187;DHT22;18686;53.084;8.872;2023-12-28T11:12:37;12.00;99.90
32187;DHT22;18686;53.084;8.872;2023-12-28T11:15:08;12.10;99.90
32187;DHT22;18686;53.084;8.872;2023-12-28T11:17:39;12.30;99.90
32187;DHT22;18686;53.084;8.872;2023-12-28T11:20:10;12.20;99.90
32187;DHT22;18686;53.084;8.872;2023-12-28T11:22:39;12.30;99.90
32187;DHT22;18686;53.084;8.872;2023-12-28T11:25:16;12.30;99.90
32187;DHT22;18686;53.084;8.872;2023-12-28T11:27:45;12.40;99.90
32187;DHT22;18686;53.084;8.872;2023-12-28T11:30:14;12.60;99.90
32187;DHT22;18686;53.084;8.872;2023-12-28T11:32:43;12.60;99.90
32187;DHT22;18686;53.084;8.872;2023-12-28T11:35:12;12.60;99.90
32187;DHT22;18686;53.084;8.872;2023-12-28T11:37:46;12.50;99.90
32187;DHT22;18686;53.084;8.872;2023-12-28T11:40:19;12.50;99.90
32187;DHT22;18686;53.084;8.872;2023-12-28T11:42:52;12.40;99.90
32187;DHT22;18686;53.084;8.872;2023-12-28T11:45:22;12.40;99.90
32187;DHT22;18686;53.084;8.872;2023-12-28T11:48:01;12.30;99.90
32187;DHT22;18686;53.084;8.872;2023-12-28T11:50:31;12.20;99.90
32187;DHT22;18686;53.084;8.872;2023-12-28T11:53:00;12.20;99.90
32187;DHT22;18686;53.084;8.872;2023-12-28T11:55:30;12.10;99.90
32187;DHT22;18686;53.084;8.872;2023-12-28T11:57:58;12.10;99.90
32187;DHT22;18686;53.084;8.872;2023-12-28T12:00:27;12.00;99.90
32187;DHT22;18686;53.084;8.872;2023-12-28T12:02:55;12.00;99.90
32187;DHT22;18686;53.084;8.872;2023-12-28T12:05:25;11.90;99.90
32187;DHT22;18686;53.084;8.872;2023-12-28T12:07:54;11.90;99.90
32187;DHT22;18686;53.084;8.872;2023-12-28T12:10:24;11.80;99.90
32187;DHT22;18686;53.084;8.872;2023-12-28T12:12:53;11.80;99.90
32187;DHT22;18686;53.084;8.872;2023-12-28T12:15:22;11.80;99.90
32187;DHT22;18686;53.084;8.872;2023-12-28T12:17:51;11.80;99.90
32187;DHT22;18686;53.084;8.872;2023-12-28T12:20:20;11.80;99.90
32187;DHT22;18686;53.084;8.872;2023-12-28T12:22:50;11.90;99.90
32187;DHT22;18686;53.084;8.872;2023-12-28T12:25:19;11.80;99.90
32187;DHT22;18686;53.084;8.872;2023-12-28T12:27:47;11.80;99.90
32187;DHT22;18686;53.084;8.872;2023-12-28T12:30:19;11.80;99.90
32187;DHT22;18686;53.084;8.872;2023-12-28T12:32:48;11.80;99.90
32187;DHT22;18686;53.084;8.872;2023-12-28T12:35:17;11.80;99.90
32187;DHT22;18686;53.084;8.872;2023-12-28T12:37:48;11.80;99.90
32187;DHT22;18686;53.084;8.872;2023-12-28T12:40:18;11.80;99.90
32187;DHT22;18686;53.084;8.872;2023-12-28T12:42:58;11.80;99.90
32187;DHT22;18686;53.084;8.872;2023-12-28T12:45:30;11.80;99.90
32187;DHT22;18686;53.084;8.872;2023-12-28T12:47:58;11.80;99.90
32187;DHT22;18686;53.084;8.872;2023-12-28T12:50:26;11.80;99.90
32187;DHT22;18686;53.084;8.872;2023-12-28T12:52:55;11.80;99.90
32187;DHT22;18686;53.084;8.872;2023-12-28T12:55:24;11.80;99.90
32187;DHT22;18686;53.084;8.872;2023-12-28T12:57:53;11.70;99.90
32187;DHT22;18686;53.084;8.872;2023-12-28T13:00:23;11.70;99.90
32187;DHT22;18686;53.084;8.872;2023-12-28T13:02:53;11.60;99.90
32187;DHT22;18686;53.084;8.872;2023-12-28T13:05:24;11.60;99.90
32187;DHT22;18686;53.084;8.872;2023-12-28T13:07:53;11.50;99.90
32187;DHT22;18686;53.084;8.872;2023-12-28T13:10:21;11.50;99.90
32187;DHT22;18686;53.084;8.872;2023-12-28T13:12:50;11.50;99.90
32187;DHT22;18686;53.084;8.872;2023-12-28T13:15:18;11.50;99.90
32187;DHT22;18686;53.084;8.872;2023-12-28T13:17:47;11.50;99.90
32187;DHT22;18686;53.084;8.872;2023-12-28T13:20:17;11.50;99.90
32187;DHT22;18686;53.084;8.872;2023-12-28T13:22:45;11.50;99.90
32187;DHT22;18686;53.084;8.872;2023-12-28T13:25:14;11.50;99.90
32187;DHT22;18686;53.084;8.872;2023-12-28T13:27:43;11.50;99.90
32187;DHT22;18686;53.084;8.872;2023-12-28T13:30:12;11.60;99.90
32187;DHT22;18686;53.084;8.872;2023-12-28T13:32:41;11.60;99.90
32187;DHT22;18686;53.084;8.872;2023-12-28T13:35:10;11.60;99.90
32187;DHT22;18686;53.084;8.872;2023-12-28T13:37:39;11.50;99.90
32187;DHT22;18686;53.084;8.872;2023-12-28T13:40:09;11.50;99.90
32187;DHT22;18686;53.084;8.872;2023-12-28T13:42:38;11.50;99.90
32187;DHT22;18686;53.084;8.872;2023-12-28T13:45:07;11.50;99.90
32187;DHT22;18686;53.084;8.872;2023-12-28T13:47:36;11.50;99.90
32187;DHT22;18686;53.084;8.872;2023-12-28T13:50:05;11.40;99.90
32187;DHT22;18686;53.084;8.872;2023-12-28T13:52:34;11.40;99.90
32187;DHT22;18686;53.084;8.872;2023-12-28T13:55:04;11.40;99.90
32187;DHT22;18686;53.084;8.872;2023-12-28T13:57:33;11.40;99.90
32187;DHT22;18686;53.084;8.872;2023-12-28T14:00:01;11.40;99.90
32187;DHT22;18686;53.084;8.872;2023-12-28T14:02:38;11.40;99.90
32187;DHT22;18686;53.084;8.872;2023-12-28T14:05:08;11.40;99.90
32187;DHT22;18686;53.084;8.872;2023-12-28T14:07:37;11.40;99.90
32187;DHT22;18686;53.084;8.872;2023-12-28T14:10:07;11.30;99.90
32187;DHT22;18686;53.084;8.872;2023-12-28T14:12:36;11.30;99.90
32187;DHT22;18686;53.084;8.872;2023-12-28T14:15:05;11.30;99.90
32187;DHT22;18686;53.084;8.872;2023-12-28T14:17:34;11.20;99.90
32187;DHT22;18686;53.084;8.872;2023-12-28T14:20:03;11.20;99.90
32187;DHT22;18686;53.084;8.872;2023-12-28T14:22:34;11.20;99.90
32187;DHT22;18686;53.084;8.872;2023-12-28T14:25:03;11.20;99.90
32187;DHT22;18686;53.084;8.872;2023-12-28T14:27:33;11.20;99.90
32187;DHT22;18686;53.084;8.872;2023-12-28T14:30:03;11.30;99.90
32187;DHT22;18686;53.084;8.872;2023-12-28T14:32:33;11.20;99.90
32187;DHT22;18686;53.084;8.872;2023-12-28T14:35:02;11.20;99.90
32187;DHT22;18686;53.084;8.872;2023-12-28T14:37:31;11.10;99.90
32187;DHT22;18686;53.084;8.872;2023-12-28T14:39:59;11.10;99.90
32187;DHT22;18686;53.084;8.872;2023-12-28T14:42:34;11.00;99.90
32187;DHT22;18686;53.084;8.872;2023-12-28T14:45:03;11.00;99.90
32187;DHT22;18686;53.084;8.872;2023-12-28T14:47:32;10.90;99.90
32187;DHT22;18686;53.084;8.872;2023-12-28T14:50:01;10.90;99.90
32187;DHT22;18686;53.084;8.872;2023-12-28T14:52:29;10.80;99.90
32187;DHT22;18686;53.084;8.872;2023-12-28T14:54:58;10.80;99.90
32187;DHT22;18686;53.084;8.872;2023-12-28T14:57:26;10.70;99.90
32187;DHT22;18686;53.084;8.872;2023-12-28T14:59:56;10.70;99.90
32187;DHT22;18686;53.084;8.872;2023-12-28T15:02:24;10.70;99.90
32187;DHT22;18686;53.084;8.872;2023-12-28T15:04:52;10.70;99.90
32187;DHT22;18686;53.084;8.872;2023-12-28T15:07:23;10.80;99.90
32187;DHT22;18686;53.084;8.872;2023-12-28T15:09:53;10.80;99.90
32187;DHT22;18686;53.084;8.872;2023-12-28T15:12:23;10.80;99.90
32187;DHT22;18686;53.084;8.872;2023-12-28T15:14:52;10.80;99.90
32187;DHT22;18686;53.084;8.872;2023-12-28T15:17:22;10.80;99.90
32187;DHT22;18686;53.084;8.872;2023-12-28T15:19:51;10.80;99.90
32187;DHT22;18686;53.084;8.872;2023-12-28T15:22:21;10.80;99.90
32187;DHT22;18686;53.084;8.872;2023-12-28T15:24:49;10.80;99.90
32187;DHT22;18686;53.084;8.872;2023-12-28T15:27:18;10.80;99.90
32187;DHT22;18686;53.084;8.872;2023-12-28T15:29:46;10.80;99.90
32187;DHT22;18686;53.084;8.872;2023-12-28T15:32:14;10.80;99.90
32187;DHT22;18686;53.084;8.872;2023-12-28T15:34:44;10.70;99.90
32187;DHT22;18686;53.084;8.872;2023-12-28T15:37:12;10.80;99.90
32187;DHT22;18686;53.084;8.872;2023-12-28T15:39:42;10.80;99.90
32187;DHT22;18686;53.084;8.872;2023-12-28T15:42:10;10.80;99.90
32187;DHT22;18686;53.084;8.872;2023-12-28T15:44:39;10.70;99.90
32187;DHT22;18686;53.084;8.872;2023-12-28T15:47:07;10.80;99.90
32187;DHT22;18686;53.084;8.872;2023-12-28T15:49:35;10.80;99.90
32187;DHT22;18686;53.084;8.872;2023-12-28T15:52:05;10.70;99.90